Time;durP1;ratioP1;P1;durP2;ratioP2;P2;SDS_P1;SDS_P2;PMS_P1;PMS_P2;Temp;Humidity;BMP_temperature;BMP_pressure;BME280_temperature;BME280_humidity;BME280_pressure;Samples;Min_cycle;Max_cycle;Signal;HPM_P1;HPM_P2
2022/09/01 00:00:49;;;;;;;10.50;4.28;;;;;;;;;;10343675;28;20129;-67
2022/09/01 00:05:48;;;;;;;9.98;4.78;;;;;;;;;;10344366;28;20064;-67
2022/09/01 00:10:48;;;;;;;7.10;5.05;;;;;;;;;;10343560;28;20063;-67
2022/09/01 00:15:47;;;;;;;10.73;5.57;;;;;;;;;;10344106;28;20079;-67
2022/09/01 00:20:45;;;;;;;7.03;4.70;;;;;;;;;;10342894;28;20035;-66
2022/09/01 00:25:44;;;;;;;6.88;4.88;;;;;;;;;;10345607;28;20051;-66
2022/09/01 00:30:44;;;;;;;9.00;5.60;;;;;;;;;;10339787;28;20590;-68
2022/09/01 00:35:43;;;;;;;6.53;5.32;;;;;;;;;;10344404;28;20044;-68
2022/09/01 00:40:41;;;;;;;9.73;4.88;;;;;;;;;;10342033;28;20068;-68
2022/09/01 00:45:40;;;;;;;9.00;5.53;;;;;;;;;;10323893;28;20637;-67
2022/09/01 00:50:41;;;;;;;7.95;4.30;;;;;;;;;;10323132;28;20647;-68
2022/09/01 00:55:39;;;;;;;8.25;5.00;;;;;;;;;;10324948;28;20045;-67
2022/09/01 01:00:39;;;;;;;6.43;4.35;;;;;;;;;;10341938;28;20442;-66
2022/09/01 01:05:47;;;;;;;7.78;4.68;;;;;;;;;;10317970;28;20464;-67
2022/09/01 01:10:45;;;;;;;4.97;4.32;;;;;;;;;;10343593;28;20068;-68
2022/09/01 01:15:44;;;;;;;5.25;4.40;;;;;;;;;;10340824;28;20040;-67
2022/09/01 01:26:03;;;;;;;8.93;4.95;;;;;;;;;;10343117;28;20068;-67
2022/09/01 01:31:04;;;;;;;7.07;5.25;;;;;;;;;;10319848;28;20084;-67
2022/09/01 01:36:06;;;;;;;8.40;4.95;;;;;;;;;;10336104;28;20505;-68
2022/09/01 01:41:06;;;;;;;6.00;5.40;;;;;;;;;;10335944;28;20040;-68
2022/09/01 01:46:07;;;;;;;9.63;5.88;;;;;;;;;;10336591;28;20040;-67
2022/09/01 01:51:09;;;;;;;6.82;5.95;;;;;;;;;;10328443;28;20556;-67
2022/09/01 01:56:10;;;;;;;8.35;5.22;;;;;;;;;;10339738;28;20060;-68
2022/09/01 02:01:10;;;;;;;8.32;4.55;;;;;;;;;;10326921;28;20045;-67
2022/09/01 02:06:10;;;;;;;7.32;5.53;;;;;;;;;;10327578;28;20490;-68
2022/09/01 02:11:16;;;;;;;7.60;5.13;;;;;;;;;;10337301;28;20084;-67
2022/09/01 02:16:15;;;;;;;8.43;4.97;;;;;;;;;;10332487;28;20074;-67
2022/09/01 02:21:18;;;;;;;7.75;4.97;;;;;;;;;;10343846;28;20076;-67
2022/09/01 02:26:22;;;;;;;7.10;5.47;;;;;;;;;;10346881;28;20505;-67
2022/09/01 02:31:21;;;;;;;6.40;4.47;;;;;;;;;;10328257;28;20079;-67
2022/09/01 02:36:23;;;;;;;6.70;5.43;;;;;;;;;;10342965;28;20051;-67
2022/09/01 02:41:23;;;;;;;8.13;5.20;;;;;;;;;;10327728;28;20071;-67
2022/09/01 02:46:22;;;;;;;6.82;4.97;;;;;;;;;;10328284;28;20532;-67
2022/09/01 02:51:24;;;;;;;7.38;4.72;;;;;;;;;;10343805;28;20090;-68
2022/09/01 02:56:26;;;;;;;9.30;4.90;;;;;;;;;;10344982;28;20048;-68
2022/09/01 03:01:29;;;;;;;8.23;5.25;;;;;;;;;;10325695;28;20047;-68
2022/09/01 03:06:32;;;;;;;8.37;4.73;;;;;;;;;;10344146;28;20493;-67
2022/09/01 03:11:34;;;;;;;7.17;5.13;;;;;;;;;;10347334;28;20076;-67
2022/09/01 03:16:33;;;;;;;9.50;5.35;;;;;;;;;;10323661;28;20324;-67
2022/09/01 03:21:31;;;;;;;6.40;5.10;;;;;;;;;;10344077;28;20055;-68
2022/09/01 03:26:30;;;;;;;6.70;5.13;;;;;;;;;;10347405;28;20044;-68
2022/09/01 03:31:30;;;;;;;9.20;5.30;;;;;;;;;;10343536;28;20476;-68
2022/09/01 03:36:32;;;;;;;13.45;5.10;;;;;;;;;;10321224;28;20049;-68
2022/09/01 03:41:31;;;;;;;5.85;4.90;;;;;;;;;;10320879;28;20520;-67
2022/09/01 03:46:33;;;;;;;10.07;5.32;;;;;;;;;;10339516;28;20059;-67
2022/09/01 03:51:34;;;;;;;9.02;5.97;;;;;;;;;;10338617;28;20087;-68
2022/09/01 03:56:32;;;;;;;5.55;5.05;;;;;;;;;;10325269;28;20421;-67
2022/09/01 04:01:33;;;;;;;20.17;6.22;;;;;;;;;;10322908;28;20074;-67
2022/09/01 04:06:32;;;;;;;7.55;5.70;;;;;;;;;;10341837;28;20068;-67
2022/09/01 04:11:31;;;;;;;11.73;6.13;;;;;;;;;;10343970;28;20777;-67
2022/09/01 04:21:50;;;;;;;9.50;5.82;;;;;;;;;;10341531;28;20674;-68
2022/09/01 04:26:49;;;;;;;8.75;5.72;;;;;;;;;;10333484;28;20072;-68
2022/09/01 04:31:52;;;;;;;10.57;6.10;;;;;;;;;;10340026;28;20075;-67
2022/09/01 04:36:53;;;;;;;9.77;5.95;;;;;;;;;;10332971;28;20044;-67
2022/09/01 04:41:52;;;;;;;6.78;5.55;;;;;;;;;;10322046;28;20505;-67
2022/09/01 04:46:51;;;;;;;9.98;5.50;;;;;;;;;;10327301;28;20481;-67
2022/09/01 04:51:51;;;;;;;7.25;5.70;;;;;;;;;;10348098;28;20754;-67
2022/09/01 04:56:54;;;;;;;7.50;6.27;;;;;;;;;;10322697;28;20103;-67
2022/09/01 05:01:54;;;;;;;7.90;5.20;;;;;;;;;;10337477;28;20543;-67
2022/09/01 05:06:58;;;;;;;8.32;5.63;;;;;;;;;;10319788;28;20057;-67
2022/09/01 05:12:09;;;;;;;12.00;5.70;;;;;;;;;;10321937;28;20147;-68
2022/09/01 05:17:16;;;;;;;6.00;5.47;;;;;;;;;;10322957;28;20059;-67
2022/09/01 05:22:15;;;;;;;8.95;5.78;;;;;;;;;;10322570;28;20055;-67
2022/09/01 05:27:21;;;;;;;9.38;6.90;;;;;;;;;;10341724;28;20094;-67
2022/09/01 05:32:20;;;;;;;16.58;13.02;;;;;;;;;;10326728;28;20301;-67
2022/09/01 05:37:19;;;;;;;16.45;8.30;;;;;;;;;;10331286;28;20095;-67
2022/09/01 05:42:17;;;;;;;13.63;12.20;;;;;;;;;;10332777;28;20518;-68
2022/09/01 05:47:17;;;;;;;15.73;9.55;;;;;;;;;;10339930;28;20072;-68
2022/09/01 05:52:25;;;;;;;13.93;7.40;;;;;;;;;;10356220;28;20091;-68
2022/09/01 05:57:24;;;;;;;9.98;6.80;;;;;;;;;;10361564;28;20173;-68
2022/09/01 06:02:39;;;;;;;15.05;7.00;;;;;;;;;;10345681;28;20647;-68
2022/09/01 06:07:41;;;;;;;11.45;5.60;;;;;;;;;;10333663;28;20059;-67
2022/09/01 06:12:41;;;;;;;18.02;7.47;;;;;;;;;;10342012;28;20084;-67
2022/09/01 06:17:42;;;;;;;10.98;6.72;;;;;;;;;;10318219;28;20039;-68
2022/09/01 06:22:42;;;;;;;10.10;6.38;;;;;;;;;;10322012;28;20068;-67
2022/09/01 06:27:42;;;;;;;9.93;6.45;;;;;;;;;;10335861;28;20049;-67
2022/09/01 06:32:43;;;;;;;13.32;5.32;;;;;;;;;;10342486;28;20074;-67
2022/09/01 06:37:43;;;;;;;10.85;7.63;;;;;;;;;;10352228;28;20054;-67
2022/09/01 06:42:47;;;;;;;16.60;7.78;;;;;;;;;;10335602;28;20083;-68
2022/09/01 06:47:49;;;;;;;12.18;7.05;;;;;;;;;;10354821;28;20083;-67
2022/09/01 06:53:09;;;;;;;8.45;5.28;;;;;;;;;;10320694;28;20064;-66
2022/09/01 06:58:28;;;;;;;10.27;5.57;;;;;;;;;;10321100;28;20090;-67
2022/09/01 07:03:28;;;;;;;9.50;5.57;;;;;;;;;;10323143;28;20079;-67
2022/09/01 07:08:48;;;;;;;8.23;5.88;;;;;;;;;;10344751;28;20067;-67
2022/09/01 07:14:07;;;;;;;9.80;5.10;;;;;;;;;;10331255;28;20063;-67
2022/09/01 07:19:15;;;;;;;11.23;5.70;;;;;;;;;;10344914;28;20044;-67
2022/09/01 07:24:21;;;;;;;8.88;5.88;;;;;;;;;;10329900;28;20052;-66
2022/09/01 07:29:53;;;;;;;7.03;5.32;;;;;;;;;;10347673;28;20087;-66
2022/09/01 07:34:55;;;;;;;14.35;6.63;;;;;;;;;;10338794;28;20059;-66
2022/09/01 07:39:59;;;;;;;10.70;5.68;;;;;;;;;;10324164;28;20527;-67
2022/09/01 07:45:45;;;;;;;10.43;6.55;;;;;;;;;;10338716;28;20047;-66
2022/09/01 07:50:51;;;;;;;8.52;6.38;;;;;;;;;;10340148;28;20079;-66
2022/09/01 07:56:11;;;;;;;20.77;7.00;;;;;;;;;;10338673;28;20441;-67
2022/09/01 08:01:17;;;;;;;28.48;8.98;;;;;;;;;;10324234;28;20040;-67
2022/09/01 08:06:21;;;;;;;42.50;9.10;;;;;;;;;;10325385;28;20052;-67
2022/09/01 08:11:21;;;;;;;36.40;8.55;;;;;;;;;;10348625;28;20072;-67
2022/09/01 08:16:39;;;;;;;17.35;5.63;;;;;;;;;;10337659;28;20075;-67
2022/09/01 08:21:51;;;;;;;13.75;5.72;;;;;;;;;;10337547;28;20509;-67
2022/09/01 08:26:57;;;;;;;12.57;7.82;;;;;;;;;;10329154;28;20399;-67
2022/09/01 08:31:57;;;;;;;10.85;8.15;;;;;;;;;;10319659;28;20076;-68
2022/09/01 08:36:57;;;;;;;9.10;7.60;;;;;;;;;;10320684;28;20442;-68
2022/09/01 08:41:59;;;;;;;10.00;8.85;;;;;;;;;;10327243;28;20068;-68
2022/09/01 08:47:02;;;;;;;11.68;8.50;;;;;;;;;;10338046;28;20520;-68
2022/09/01 08:52:06;;;;;;;14.35;12.95;;;;;;;;;;10327817;28;20143;-67
2022/09/01 08:57:06;;;;;;;15.75;13.30;;;;;;;;;;10319283;28;20052;-68
2022/09/01 09:02:48;;;;;;;14.30;11.35;;;;;;;;;;10188003;28;20081;-67
2022/09/01 09:07:56;;;;;;;16.00;13.35;;;;;;;;;;10321297;28;20083;-67
2022/09/01 09:13:08;;;;;;;10.50;8.63;;;;;;;;;;10363699;28;20071;-68
2022/09/01 09:18:09;;;;;;;12.18;10.45;;;;;;;;;;10347459;28;20068;-67
2022/09/01 09:23:31;;;;;;;12.75;11.50;;;;;;;;;;10347882;28;20103;-67
2022/09/01 09:28:30;;;;;;;9.98;7.05;;;;;;;;;;10349830;28;20075;-67
2022/09/01 09:33:36;;;;;;;19.25;17.35;;;;;;;;;;10344319;28;20064;-67
2022/09/01 09:39:03;;;;;;;15.10;13.60;;;;;;;;;;10347294;28;20078;-67
2022/09/01 09:44:04;;;;;;;15.55;13.90;;;;;;;;;;10347112;28;20075;-68
2022/09/01 09:49:09;;;;;;;27.70;24.33;;;;;;;;;;10346517;28;20536;-68
2022/09/01 09:54:13;;;;;;;20.65;18.58;;;;;;;;;;10348080;28;20075;-67
2022/09/01 09:59:23;;;;;;;23.27;20.83;;;;;;;;;;10348060;28;20097;-67
2022/09/01 10:04:41;;;;;;;27.73;24.92;;;;;;;;;;10344424;28;20075;-68
2022/09/01 10:09:41;;;;;;;32.90;29.05;;;;;;;;;;10347860;28;20071;-67
2022/09/01 10:14:42;;;;;;;34.55;30.45;;;;;;;;;;10329127;28;20056;-68
2022/09/01 10:19:53;;;;;;;24.05;21.63;;;;;;;;;;10347139;28;20048;-68
2022/09/01 10:24:52;;;;;;;25.95;21.98;;;;;;;;;;10347256;28;20074;-68
2022/09/01 10:29:53;;;;;;;55.25;46.08;;;;;;;;;;10346539;28;20088;-68
2022/09/01 10:35:12;;;;;;;43.65;39.65;;;;;;;;;;10344527;28;20072;-67
2022/09/01 10:40:16;;;;;;;38.83;34.75;;;;;;;;;;10346227;28;20079;-67
2022/09/01 10:45:21;;;;;;;43.40;38.90;;;;;;;;;;10346180;28;20071;-67
2022/09/01 10:50:24;;;;;;;41.42;37.15;;;;;;;;;;10360212;28;20084;-67
2022/09/01 10:55:25;;;;;;;25.15;20.83;;;;;;;;;;10358608;28;20432;-68
2022/09/01 11:00:46;;;;;;;19.80;17.67;;;;;;;;;;10357953;28;20040;-67
2022/09/01 11:06:06;;;;;;;14.20;10.45;;;;;;;;;;10345843;28;20510;-67
2022/09/01 11:11:21;;;;;;;13.43;8.77;;;;;;;;;;10346126;28;20079;-66
2022/09/01 11:16:43;;;;;;;10.38;6.75;;;;;;;;;;10345070;28;20047;-66
2022/09/01 11:21:44;;;;;;;10.63;5.38;;;;;;;;;;10332261;28;20092;-66
2022/09/01 11:26:47;;;;;;;11.50;5.43;;;;;;;;;;10345746;28;20045;-66
2022/09/01 11:31:46;;;;;;;8.07;5.93;;;;;;;;;;10340516;28;20072;-66
2022/09/01 11:36:47;;;;;;;8.23;4.63;;;;;;;;;;10348314;28;20047;-67
2022/09/01 11:41:51;;;;;;;6.85;5.07;;;;;;;;;;10342513;28;20079;-68
2022/09/01 11:46:58;;;;;;;6.60;5.43;;;;;;;;;;10341420;28;20079;-67
2022/09/01 11:51:59;;;;;;;6.28;4.97;;;;;;;;;;10344025;28;20083;-67
2022/09/01 11:57:00;;;;;;;11.48;5.13;;;;;;;;;;10341429;28;20048;-67
2022/09/01 12:01:58;;;;;;;8.48;5.72;;;;;;;;;;10343526;28;20072;-67
2022/09/01 12:06:59;;;;;;;6.10;4.90;;;;;;;;;;10345290;28;20064;-67
2022/09/01 12:12:00;;;;;;;10.70;4.30;;;;;;;;;;10342372;28;20083;-67
2022/09/01 12:17:00;;;;;;;8.68;4.50;;;;;;;;;;10343260;28;20076;-67
2022/09/01 12:22:01;;;;;;;10.90;7.07;;;;;;;;;;10341562;28;20045;-68
2022/09/01 12:27:01;;;;;;;7.28;4.00;;;;;;;;;;10344406;28;20071;-67
2022/09/01 12:32:00;;;;;;;8.45;5.88;;;;;;;;;;10341354;28;20075;-67
2022/09/01 12:37:06;;;;;;;10.80;5.20;;;;;;;;;;10340628;28;20048;-67
2022/09/01 12:42:08;;;;;;;26.52;5.85;;;;;;;;;;10340469;28;20072;-68
2022/09/01 12:47:07;;;;;;;9.73;5.13;;;;;;;;;;10342103;28;20049;-68
2022/09/01 12:52:10;;;;;;;8.27;5.10;;;;;;;;;;10342361;28;20383;-67
2022/09/01 12:57:23;;;;;;;10.05;5.32;;;;;;;;;;10343370;28;20080;-67
2022/09/01 13:02:33;;;;;;;10.80;5.88;;;;;;;;;;10324194;28;20048;-67
2022/09/01 13:07:32;;;;;;;10.40;4.47;;;;;;;;;;10343087;28;20071;-67
2022/09/01 13:12:32;;;;;;;8.48;4.20;;;;;;;;;;10341224;28;20082;-67
2022/09/01 13:17:30;;;;;;;16.13;6.82;;;;;;;;;;10341908;28;20051;-67
2022/09/01 13:22:28;;;;;;;6.35;5.03;;;;;;;;;;10342514;28;20036;-68
2022/09/01 13:27:27;;;;;;;9.45;6.22;;;;;;;;;;10343364;28;20041;-68
2022/09/01 13:32:26;;;;;;;6.53;5.85;;;;;;;;;;10340242;28;20474;-67
2022/09/01 13:37:25;;;;;;;11.95;7.50;;;;;;;;;;10339875;28;20072;-67
2022/09/01 13:42:23;;;;;;;7.57;4.43;;;;;;;;;;10342245;28;20064;-67
2022/09/01 13:47:27;;;;;;;7.88;4.57;;;;;;;;;;10339099;28;20082;-68
2022/09/01 13:52:28;;;;;;;12.25;5.07;;;;;;;;;;10343702;28;20071;-68
2022/09/01 13:57:27;;;;;;;7.35;4.38;;;;;;;;;;10349422;28;20068;-68
2022/09/01 14:02:35;;;;;;;10.70;5.75;;;;;;;;;;10340967;28;20080;-68
2022/09/01 14:07:33;;;;;;;5.70;4.15;;;;;;;;;;10347429;28;20075;-68
2022/09/01 14:12:32;;;;;;;10.45;5.93;;;;;;;;;;10348001;28;20087;-67
2022/09/01 14:17:30;;;;;;;6.00;5.40;;;;;;;;;;10359405;28;20114;-68
2022/09/01 14:22:30;;;;;;;12.80;4.60;;;;;;;;;;10361429;28;20074;-67
2022/09/01 14:27:35;;;;;;;13.02;4.53;;;;;;;;;;10355511;28;20036;-67
2022/09/01 14:32:34;;;;;;;10.27;4.88;;;;;;;;;;10347886;28;20083;-67
2022/09/01 14:37:33;;;;;;;7.05;4.18;;;;;;;;;;10347539;28;20079;-67
2022/09/01 14:42:32;;;;;;;9.02;5.60;;;;;;;;;;10341418;28;20088;-67
2022/09/01 14:47:31;;;;;;;8.05;3.95;;;;;;;;;;10344906;28;20454;-67
2022/09/01 14:52:30;;;;;;;9.27;4.78;;;;;;;;;;10345394;28;20068;-67
2022/09/01 14:57:30;;;;;;;6.68;4.55;;;;;;;;;;10343956;28;20063;-67
2022/09/01 15:02:35;;;;;;;10.93;4.70;;;;;;;;;;10345656;28;20067;-67
2022/09/01 15:07:33;;;;;;;8.52;4.32;;;;;;;;;;10339470;28;20150;-66
2022/09/01 15:12:33;;;;;;;9.57;5.25;;;;;;;;;;10344472;28;20072;-67
2022/09/01 15:17:31;;;;;;;6.63;4.05;;;;;;;;;;10346388;28;20064;-67
2022/09/01 15:22:30;;;;;;;8.43;5.95;;;;;;;;;;10345662;28;20068;-67
2022/09/01 15:27:28;;;;;;;12.02;4.00;;;;;;;;;;10343407;28;20543;-67
2022/09/01 15:32:28;;;;;;;7.38;4.10;;;;;;;;;;10344507;28;20079;-67
2022/09/01 15:37:26;;;;;;;9.48;3.85;;;;;;;;;;10344332;28;20434;-67
2022/09/01 15:42:25;;;;;;;10.05;4.38;;;;;;;;;;10345266;28;20076;-67
2022/09/01 15:47:23;;;;;;;8.88;4.53;;;;;;;;;;10344178;28;20106;-65
2022/09/01 15:52:23;;;;;;;10.43;4.53;;;;;;;;;;10347781;28;20075;-67
2022/09/01 15:57:21;;;;;;;8.63;5.22;;;;;;;;;;10349791;28;20067;-65
2022/09/01 16:02:22;;;;;;;8.30;4.68;;;;;;;;;;10348311;28;20478;-66
2022/09/01 16:07:20;;;;;;;13.75;5.18;;;;;;;;;;10348987;28;20072;-66
2022/09/01 16:12:20;;;;;;;10.32;3.97;;;;;;;;;;10346693;28;20110;-67
2022/09/01 16:17:22;;;;;;;12.60;4.00;;;;;;;;;;10349501;28;20056;-67
2022/09/01 16:22:22;;;;;;;8.90;3.92;;;;;;;;;;10348423;28;20072;-68
2022/09/01 16:27:30;;;;;;;10.38;5.20;;;;;;;;;;10342678;28;20801;-66
2022/09/01 16:32:32;;;;;;;8.75;5.85;;;;;;;;;;10339936;28;20082;-67
2022/09/01 16:37:38;;;;;;;9.82;4.68;;;;;;;;;;10350155;28;20059;-67
2022/09/01 16:42:41;;;;;;;11.45;4.43;;;;;;;;;;10341156;28;20474;-67
2022/09/01 16:47:48;;;;;;;9.32;4.93;;;;;;;;;;10342710;28;20080;-66
2022/09/01 16:53:01;;;;;;;14.73;5.10;;;;;;;;;;10348633;28;20071;-66
2022/09/01 16:58:03;;;;;;;12.35;7.05;;;;;;;;;;10335985;28;20072;-68
2022/09/01 17:03:07;;;;;;;10.45;5.45;;;;;;;;;;10336065;28;20068;-69
2022/09/01 17:08:21;;;;;;;9.43;5.20;;;;;;;;;;10339017;28;20079;-69
2022/09/01 17:13:23;;;;;;;11.95;4.85;;;;;;;;;;10337747;28;20076;-69
2022/09/01 17:18:29;;;;;;;8.48;5.32;;;;;;;;;;10338960;28;20059;-69
2022/09/01 17:23:30;;;;;;;13.10;5.90;;;;;;;;;;10340951;28;20071;-69
2022/09/01 17:28:32;;;;;;;11.48;5.63;;;;;;;;;;10346122;28;20067;-69
2022/09/01 17:33:35;;;;;;;10.82;7.05;;;;;;;;;;10347455;28;20456;-68
2022/09/01 17:38:39;;;;;;;9.35;5.03;;;;;;;;;;10348886;28;20068;-69
2022/09/01 17:43:44;;;;;;;10.07;5.10;;;;;;;;;;10355431;28;20087;-69
2022/09/01 17:48:45;;;;;;;8.48;5.63;;;;;;;;;;10351806;28;20084;-69
2022/09/01 17:53:48;;;;;;;8.32;6.80;;;;;;;;;;10348811;28;20074;-69
2022/09/01 17:58:52;;;;;;;9.18;5.85;;;;;;;;;;10357878;28;20051;-69
2022/09/01 18:04:19;;;;;;;12.75;5.85;;;;;;;;;;10361240;28;20047;-69
2022/09/01 18:09:20;;;;;;;8.60;6.50;;;;;;;;;;10359909;28;20075;-69
2022/09/01 18:14:21;;;;;;;9.68;6.47;;;;;;;;;;10345209;28;20722;-67
2022/09/01 18:19:22;;;;;;;13.45;8.15;;;;;;;;;;10343430;28;20094;-69
2022/09/01 18:24:21;;;;;;;5.90;5.22;;;;;;;;;;10347659;28;20082;-68
2022/09/01 18:29:23;;;;;;;16.65;5.93;;;;;;;;;;10341855;28;20381;-69
2022/09/01 18:34:27;;;;;;;10.60;6.53;;;;;;;;;;10338214;28;20556;-69
2022/09/01 18:39:25;;;;;;;;;;;;;;;;;;10342148;28;20063;-69
2022/09/01 18:44:33;;;;;;;11.52;6.10;;;;;;;;;;10347195;28;20362;-69
2022/09/01 18:49:35;;;;;;;9.05;5.30;;;;;;;;;;10343661;28;20154;-68
2022/09/01 18:54:39;;;;;;;9.88;5.63;;;;;;;;;;10347399;28;20075;-68
2022/09/01 18:59:47;;;;;;;7.27;5.47;;;;;;;;;;10344089;28;20059;-68
2022/09/01 19:04:46;;;;;;;7.50;5.07;;;;;;;;;;10345638;28;20063;-68
2022/09/01 19:09:51;;;;;;;6.10;4.53;;;;;;;;;;10345096;28;20079;-66
2022/09/01 19:14:54;;;;;;;7.38;5.53;;;;;;;;;;10342956;28;20110;-67
2022/09/01 19:19:56;;;;;;;12.37;5.27;;;;;;;;;;10340795;28;20467;-66
2022/09/01 19:25:32;;;;;;;5.53;4.80;;;;;;;;;;10339321;28;20326;-67
2022/09/01 19:30:17;;;;;;;9.40;5.65;;;;;;;;;;10341308;28;20075;-66
2022/09/01 19:35:17;;;;;;;9.48;5.15;;;;;;;;;;10344255;28;20509;-66
2022/09/01 19:40:17;;;;;;;6.38;5.20;;;;;;;;;;10345066;28;20094;-66
2022/09/01 19:45:28;;;;;;;11.80;4.97;;;;;;;;;;10349417;28;20071;-68
2022/09/01 19:50:30;;;;;;;6.22;4.75;;;;;;;;;;10347742;28;20131;-69
2022/09/01 19:55:31;;;;;;;5.13;4.30;;;;;;;;;;10354129;28;20074;-68
2022/09/01 20:00:37;;;;;;;7.60;4.30;;;;;;;;;;10356030;28;20032;-68
2022/09/01 20:05:39;;;;;;;6.65;3.72;;;;;;;;;;10354274;28;20072;-69
2022/09/01 20:10:46;;;;;;;5.65;4.55;;;;;;;;;;10355600;28;20071;-68
2022/09/01 20:15:57;;;;;;;9.50;5.00;;;;;;;;;;10352965;28;20074;-69
2022/09/01 20:21:00;;;;;;;8.13;5.15;;;;;;;;;;10350374;28;20091;-68
2022/09/01 20:26:02;;;;;;;7.53;4.50;;;;;;;;;;10347073;28;20067;-70
2022/09/01 20:31:05;;;;;;;5.43;3.95;;;;;;;;;;10344936;28;20068;-68
2022/09/01 20:36:06;;;;;;;4.32;3.50;;;;;;;;;;10342289;28;20072;-69
2022/09/01 20:41:11;;;;;;;9.80;3.72;;;;;;;;;;10341489;28;20063;-69
2022/09/01 20:46:11;;;;;;;5.32;2.85;;;;;;;;;;10332524;28;20596;-69
2022/09/01 20:51:11;;;;;;;3.33;2.45;;;;;;;;;;10341738;28;20072;-67
2022/09/01 20:56:15;;;;;;;2.35;2.08;;;;;;;;;;10353159;28;20072;-69
2022/09/01 21:01:18;;;;;;;2.97;2.38;;;;;;;;;;10353780;28;20078;-68
2022/09/01 21:06:21;;;;;;;2.90;2.43;;;;;;;;;;10348358;28;20064;-68
2022/09/01 21:11:23;;;;;;;2.43;1.97;;;;;;;;;;10331026;28;20072;-69
2022/09/01 21:16:30;;;;;;;2.50;2.30;;;;;;;;;;10347142;28;20099;-69
2022/09/01 21:21:33;;;;;;;2.40;2.17;;;;;;;;;;10352941;28;20068;-69
2022/09/01 21:26:31;;;;;;;2.58;2.35;;;;;;;;;;10355059;28;20078;-69
2022/09/01 21:31:32;;;;;;;2.40;2.20;;;;;;;;;;10347022;28;20040;-67
2022/09/01 21:36:30;;;;;;;4.20;2.70;;;;;;;;;;10339002;28;20064;-68
2022/09/01 21:41:28;;;;;;;4.65;2.40;;;;;;;;;;10340576;28;20094;-68
2022/09/01 21:46:27;;;;;;;4.38;3.28;;;;;;;;;;10345983;28;20067;-68
2022/09/01 21:51:27;;;;;;;5.13;3.55;;;;;;;;;;10344826;28;20528;-67
2022/09/01 21:56:26;;;;;;;4.55;3.97;;;;;;;;;;10337638;28;20464;-66
2022/09/01 22:01:30;;;;;;;9.13;4.38;;;;;;;;;;10337311;28;20056;-70
2022/09/01 22:06:30;;;;;;;6.78;4.65;;;;;;;;;;10335920;28;20477;-67
2022/09/01 22:11:29;;;;;;;7.72;4.43;;;;;;;;;;10337842;28;20063;-68
2022/09/01 22:16:27;;;;;;;6.60;4.40;;;;;;;;;;10326272;28;20460;-68
2022/09/01 22:21:25;;;;;;;5.10;4.60;;;;;;;;;;10349826;28;20059;-68
2022/09/01 22:26:26;;;;;;;5.15;4.45;;;;;;;;;;10345946;28;20067;-68
2022/09/01 22:31:25;;;;;;;8.18;4.20;;;;;;;;;;10349548;28;20084;-68
2022/09/01 22:36:26;;;;;;;8.98;4.20;;;;;;;;;;10344957;28;20478;-69
2022/09/01 22:41:26;;;;;;;10.50;4.60;;;;;;;;;;10347062;28;20036;-68
2022/09/01 22:46:25;;;;;;;6.30;5.18;;;;;;;;;;10347061;28;20067;-68
2022/09/01 22:51:23;;;;;;;6.85;4.88;;;;;;;;;;10345930;28;20064;-69
2022/09/01 22:56:23;;;;;;;7.05;5.32;;;;;;;;;;10346389;28;20101;-68
2022/09/01 23:01:24;;;;;;;8.82;5.18;;;;;;;;;;10344844;28;20556;-68
2022/09/01 23:06:23;;;;;;;9.07;6.13;;;;;;;;;;10344915;28;20056;-67
2022/09/01 23:11:25;;;;;;;8.00;4.75;;;;;;;;;;10345285;28;20044;-68
2022/09/01 23:16:26;;;;;;;8.18;4.55;;;;;;;;;;10346115;28;20063;-68
2022/09/01 23:21:25;;;;;;;7.60;4.53;;;;;;;;;;10345821;28;20059;-68
2022/09/01 23:26:24;;;;;;;7.85;4.50;;;;;;;;;;10345228;28;20064;-68
2022/09/01 23:31:24;;;;;;;7.57;4.40;;;;;;;;;;10343403;28;20064;-67
2022/09/01 23:36:25;;;;;;;6.47;5.07;;;;;;;;;;10341769;28;20446;-68
2022/09/01 23:41:27;;;;;;;9.27;5.30;;;;;;;;;;10344001;28;20044;-68
2022/09/01 23:46:26;;;;;;;6.10;4.32;;;;;;;;;;10346639;28;20056;-68
2022/09/01 23:51:26;;;;;;;11.68;5.00;;;;;;;;;;10342898;28;20470;-68
2022/09/01 23:56:26;;;;;;;5.22;4.65;;;;;;;;;;10345896;28;20543;-68
